Time;durP1;ratioP1;P1;durP2;ratioP2;P2;SDS_P1;SDS_P2;PMS_P1;PMS_P2;Temp;Humidity;BMP_temperature;BMP_pressure;BME280_temperature;BME280_humidity;BME280_pressure;Samples;Min_cycle;Max_cycle;Signal;HPM_P1;HPM_P2
2022/05/04 00:00:25;;;;;;;0.40;0.40;;;;;;;12.35;100.00;95385.44;5115334;28;20870;-52
2022/05/04 00:02:54;;;;;;;2.50;0.73;;;;;;;11.94;100.00;95384.16;5115319;28;20427;-53
2022/05/04 00:05:23;;;;;;;0.57;0.57;;;;;;;12.17;100.00;95391.41;5114846;28;20474;-53
2022/05/04 00:07:52;;;;;;;0.50;0.40;;;;;;;11.48;100.00;95372.97;5114853;28;20424;-53
2022/05/04 00:10:22;;;;;;;0.37;0.30;;;;;;;11.55;100.00;95392.03;5115043;28;20451;-53
2022/05/04 00:12:51;;;;;;;0.80;0.40;;;;;;;11.26;100.00;95391.88;5114797;28;20480;-53
2022/05/04 00:15:19;;;;;;;0.97;0.50;;;;;;;11.40;100.00;95389.47;5114711;28;21015;-53
2022/05/04 00:17:48;;;;;;;0.40;0.30;;;;;;;11.66;100.00;95395.44;5114737;28;20461;-53
2022/05/04 00:20:17;;;;;;;0.57;0.53;;;;;;;11.63;100.00;95401.28;5114685;28;20488;-53
2022/05/04 00:22:47;;;;;;;2.50;0.67;;;;;;;11.25;100.00;95392.16;5114635;28;20510;-53
2022/05/04 00:25:15;;;;;;;4.20;0.60;;;;;;;10.64;100.00;95399.47;5114521;28;20434;-53
2022/05/04 00:27:43;;;;;;;0.30;0.20;;;;;;;10.52;100.00;95404.25;5114824;28;20526;-53
2022/05/04 00:30:12;;;;;;;0.30;0.20;;;;;;;10.76;100.00;95400.78;5114652;28;20521;-53
2022/05/04 00:32:41;;;;;;;0.40;0.30;;;;;;;11.20;100.00;95406.25;5114443;28;20993;-54
2022/05/04 00:35:10;;;;;;;0.30;0.20;;;;;;;11.07;100.00;95398.06;5114291;28;20427;-53
2022/05/04 00:37:38;;;;;;;0.50;0.50;;;;;;;11.03;100.00;95384.53;5114670;28;20426;-53
2022/05/04 00:40:10;;;;;;;0.30;0.20;;;;;;;11.26;100.00;95396.41;5114234;28;20432;-53
2022/05/04 00:42:39;;;;;;;0.50;0.40;;;;;;;11.06;100.00;95399.13;5114114;28;20444;-54
2022/05/04 00:45:08;;;;;;;0.80;0.80;;;;;;;11.11;100.00;95394.59;5113882;28;20566;-54
2022/05/04 00:47:36;;;;;;;0.40;0.30;;;;;;;10.80;100.00;95401.06;5114467;28;20492;-54
2022/05/04 00:50:07;;;;;;;0.60;0.50;;;;;;;10.69;100.00;95402.13;5113996;28;20565;-53
2022/05/04 00:52:37;;;;;;;0.40;0.40;;;;;;;10.64;100.00;95396.81;5114304;28;20514;-53
2022/05/04 00:55:09;;;;;;;3.17;1.17;;;;;;;10.77;100.00;95407.69;5114031;28;20463;-54
2022/05/04 01:00:27;;;;;;;0.40;0.40;;;;;;;10.29;100.00;95407.44;5113043;28;21186;-54
2022/05/04 01:02:56;;;;;;;0.30;0.20;;;;;;;10.31;100.00;95410.63;5113734;28;20459;-54
2022/05/04 01:05:24;;;;;;;0.30;0.20;;;;;;;10.81;100.00;95411.38;5113869;28;20427;-54
2022/05/04 01:07:53;;;;;;;0.30;0.20;;;;;;;10.92;100.00;95390.16;5114028;28;20431;-54
2022/05/04 01:10:22;;;;;;;0.40;0.40;;;;;;;11.11;100.00;95413.16;5113802;28;20837;-54
2022/05/04 01:12:52;;;;;;;1.13;0.50;;;;;;;11.24;100.00;95409.94;5112981;28;20455;-54
2022/05/04 01:15:23;;;;;;;0.40;0.33;;;;;;;10.96;100.00;95357.50;5113618;28;20966;-54
2022/05/04 01:17:52;;;;;;;0.40;0.30;;;;;;;9.86;100.00;95327.44;5113917;28;20791;-54
2022/05/04 01:20:24;;;;;;;0.50;0.50;;;;;;;10.75;100.00;95415.09;5113901;28;20418;-54
2022/05/04 01:22:56;;;;;;;0.40;0.30;;;;;;;9.99;100.00;95308.34;5113379;28;20526;-54
2022/05/04 01:25:24;;;;;;;0.40;0.30;;;;;;;10.52;100.00;95425.47;5113459;28;20437;-54
2022/05/04 01:27:52;;;;;;;0.77;0.77;;;;;;;10.27;100.00;95428.88;5113616;28;20538;-54
2022/05/04 01:30:21;;;;;;;0.50;0.50;;;;;;;9.59;100.00;95435.34;5113586;28;20563;-54
2022/05/04 01:32:49;;;;;;;0.40;0.40;;;;;;;9.86;100.00;95438.63;5112672;28;20481;-54
2022/05/04 01:35:18;;;;;;;0.43;0.40;;;;;;;10.48;100.00;95427.84;5112852;28;20973;-54
2022/05/04 01:37:46;;;;;;;0.30;0.30;;;;;;;10.66;100.00;95424.66;5112986;28;20515;-54
2022/05/04 01:40:16;;;;;;;0.30;0.30;;;;;;;10.76;100.00;95426.50;5113430;28;20833;-54
2022/05/04 01:42:44;;;;;;;0.40;0.40;;;;;;;10.71;100.00;95423.84;5113271;28;20431;-54
2022/05/04 01:45:13;;;;;;;0.40;0.30;;;;;;;10.70;100.00;95422.28;5112861;28;20505;-54
2022/05/04 01:47:41;;;;;;;0.30;0.30;;;;;;;10.52;100.00;95433.41;5112965;28;20451;-54
2022/05/04 01:50:10;;;;;;;0.30;0.20;;;;;;;10.59;100.00;95431.28;5112774;28;20482;-54
2022/05/04 01:52:39;;;;;;;0.30;0.30;;;;;;;10.69;100.00;95428.63;5113181;28;20458;-54
2022/05/04 01:55:09;;;;;;;0.30;0.20;;;;;;;10.72;100.00;95426.25;5112846;28;20514;-54
2022/05/04 01:57:39;;;;;;;0.40;0.30;;;;;;;10.48;100.00;95429.69;5112274;28;20423;-54
2022/05/04 02:00:09;;;;;;;0.30;0.20;;;;;;;10.41;100.00;95426.50;5112678;28;21063;-55
2022/05/04 02:02:37;;;;;;;0.50;0.50;;;;;;;10.27;100.00;95434.19;5112953;28;20458;-53
2022/05/04 02:05:06;;;;;;;0.83;0.67;;;;;;;10.14;100.00;95435.50;5111757;28;20434;-53
2022/05/04 02:07:36;;;;;;;0.40;0.30;;;;;;;10.01;100.00;95436.00;5112508;28;20462;-53
2022/05/04 02:10:04;;;;;;;0.40;0.40;;;;;;;10.28;100.00;95433.13;5112367;28;21054;-54
2022/05/04 02:12:34;;;;;;;2.20;0.87;;;;;;;9.75;100.00;95439.63;5112373;28;20465;-53
2022/05/04 02:15:05;;;;;;;0.60;0.60;;;;;;;9.68;100.00;95436.44;5111477;28;20419;-53
2022/05/04 02:17:34;;;;;;;0.40;0.40;;;;;;;9.71;100.00;95443.88;5112682;28;20439;-53
2022/05/04 02:20:03;;;;;;;0.60;0.60;;;;;;;9.74;100.00;95448.63;5112374;28;20431;-53
2022/05/04 02:22:32;;;;;;;0.30;0.20;;;;;;;10.22;100.00;95451.94;5111759;28;20476;-54
2022/05/04 02:25:00;;;;;;;0.33;0.27;;;;;;;10.25;100.00;95438.16;5111799;28;20522;-54
2022/05/04 02:27:28;;;;;;;0.50;0.30;;;;;;;10.34;100.00;95434.75;5112287;28;20447;-53
2022/05/04 02:29:57;;;;;;;0.40;0.40;;;;;;;9.77;100.00;95432.22;5111997;28;20570;-53
2022/05/04 02:32:26;;;;;;;0.30;0.20;;;;;;;9.68;100.00;95447.03;5111712;28;20474;-53
2022/05/04 02:37:55;;;;;;;0.30;0.20;;;;;;;9.11;100.00;95451.53;5112347;28;20527;-53
2022/05/04 02:40:26;;;;;;;0.47;0.40;;;;;;;9.25;100.00;95455.31;5112252;28;20442;-53
2022/05/04 02:42:55;;;;;;;0.30;0.30;;;;;;;9.61;100.00;95457.06;5112298;28;20477;-53
2022/05/04 02:45:24;;;;;;;0.30;0.20;;;;;;;9.79;100.00;95453.94;5111500;28;20546;-53
2022/05/04 02:47:53;;;;;;;0.30;0.20;;;;;;;9.94;100.00;95453.97;5111728;28;20462;-54
2022/05/04 02:50:23;;;;;;;0.40;0.30;;;;;;;10.10;100.00;95452.94;5112196;28;20554;-54
2022/05/04 02:52:52;;;;;;;0.40;0.30;;;;;;;9.89;100.00;95451.31;5112413;28;20506;-54
2022/05/04 02:55:20;;;;;;;0.30;0.20;;;;;;;9.36;100.00;95470.19;5112021;28;20496;-53
2022/05/04 02:57:49;;;;;;;0.40;0.30;;;;;;;9.23;100.00;95460.88;5112277;28;20507;-54
2022/05/04 03:00:18;;;;;;;0.30;0.20;;;;;;;9.05;100.00;95465.78;5111868;28;20424;-53
2022/05/04 03:02:46;;;;;;;0.67;0.47;;;;;;;9.49;100.00;95464.41;5111678;28;20432;-53
2022/05/04 03:05:17;;;;;;;0.30;0.20;;;;;;;9.78;100.00;95462.13;5112228;28;20431;-53
2022/05/04 03:07:46;;;;;;;0.30;0.30;;;;;;;9.87;100.00;95456.06;5111917;28;20454;-53
2022/05/04 03:10:14;;;;;;;0.30;0.20;;;;;;;9.99;100.00;95459.28;5111765;28;20972;-53
2022/05/04 03:12:43;;;;;;;0.30;0.20;;;;;;;9.83;100.00;95465.59;5111845;28;20455;-53
2022/05/04 03:15:12;;;;;;;0.30;0.30;;;;;;;9.25;100.00;95463.25;5112153;28;20770;-54
2022/05/04 03:17:40;;;;;;;0.40;0.40;;;;;;;9.23;100.00;95470.66;5111724;28;20970;-54
2022/05/04 03:20:12;;;;;;;0.50;0.30;;;;;;;9.59;100.00;95469.72;5112031;28;20439;-54
2022/05/04 03:22:42;;;;;;;0.87;0.53;;;;;;;9.51;100.00;95471.03;5111533;28;20428;-54
2022/05/04 03:25:11;;;;;;;0.40;0.30;;;;;;;9.74;100.00;95480.38;5112045;28;20873;-53
2022/05/04 03:27:56;;;;;;;0.67;0.67;;;;;;;9.83;100.00;95481.47;5115182;28;20465;-53
2022/05/04 03:30:24;;;;;;;0.40;0.30;;;;;;;9.52;100.00;95490.34;5115008;28;20467;-54
2022/05/04 03:32:53;;;;;;;0.50;0.43;;;;;;;9.13;100.00;95491.75;5115703;28;20434;-54
2022/05/04 03:35:21;;;;;;;0.30;0.20;;;;;;;8.98;100.00;95491.66;5115676;28;20464;-53
2022/05/04 03:37:51;;;;;;;3.90;0.30;;;;;;;8.56;100.00;95494.22;5115671;28;20420;-53
2022/05/04 03:40:20;;;;;;;0.33;0.27;;;;;;;8.95;100.00;95488.44;5115650;28;20508;-53
2022/05/04 03:42:50;;;;;;;0.40;0.30;;;;;;;9.18;100.00;95494.41;5115627;28;20440;-53
2022/05/04 03:45:20;;;;;;;0.80;0.30;;;;;;;9.40;100.00;95493.22;5114586;28;20553;-53
2022/05/04 03:47:48;;;;;;;0.30;0.20;;;;;;;9.25;100.00;95487.84;5115548;28;20837;-53
2022/05/04 03:50:17;;;;;;;0.30;0.20;;;;;;;9.62;100.00;95495.69;5115350;28;20542;-54
2022/05/04 03:52:45;;;;;;;0.30;0.20;;;;;;;9.63;100.00;95489.34;5115771;28;20434;-53
2022/05/04 03:55:15;;;;;;;0.73;0.73;;;;;;;9.82;100.00;95494.97;5115380;28;20518;-53
2022/05/04 03:57:43;;;;;;;0.30;0.30;;;;;;;10.08;100.00;95497.44;5115300;28;20909;-53
2022/05/04 04:00:12;;;;;;;0.30;0.20;;;;;;;10.18;100.00;95505.44;5115620;28;20495;-53
2022/05/04 04:02:41;;;;;;;0.30;0.30;;;;;;;9.93;100.00;95496.59;5115250;28;20483;-53
2022/05/04 04:05:10;;;;;;;0.30;0.20;;;;;;;10.03;100.00;95502.72;5115139;28;20470;-53
2022/05/04 04:07:38;;;;;;;0.30;0.30;;;;;;;10.12;100.00;95500.38;5115391;28;20455;-53
2022/05/04 04:10:08;;;;;;;1.37;0.37;;;;;;;10.11;100.00;95498.78;5115363;28;20447;-53
2022/05/04 04:12:38;;;;;;;0.30;0.20;;;;;;;9.52;100.00;95499.09;5114952;28;20523;-53
2022/05/04 04:15:07;;;;;;;1.57;1.47;;;;;;;9.90;100.00;95508.50;5114966;28;20433;-53
2022/05/04 04:17:36;;;;;;;0.40;0.30;;;;;;;9.67;100.00;95506.28;5114860;28;20519;-53
2022/05/04 04:22:51;;;;;;;0.40;0.30;;;;;;;9.78;100.00;95499.19;5114298;28;20514;-54
2022/05/04 04:25:20;;;;;;;0.40;0.30;;;;;;;9.91;100.00;95498.72;5114810;28;20937;-53
2022/05/04 04:27:49;;;;;;;0.40;0.40;;;;;;;10.06;100.00;95502.22;5115096;28;20846;-53
2022/05/04 04:30:18;;;;;;;0.40;0.30;;;;;;;10.11;100.00;95509.38;5114617;28;20514;-53
2022/05/04 04:32:46;;;;;;;0.30;0.30;;;;;;;10.12;100.00;95511.78;5114996;28;20839;-53
2022/05/04 04:35:15;;;;;;;1.80;0.60;;;;;;;10.14;100.00;95507.00;5114105;28;20522;-53
2022/05/04 04:37:43;;;;;;;0.30;0.30;;;;;;;10.20;100.00;95511.25;5114304;28;20485;-53
2022/05/04 04:40:12;;;;;;;0.40;0.30;;;;;;;9.90;100.00;95500.56;5114273;28;20427;-53
2022/05/04 04:42:40;;;;;;;0.40;0.40;;;;;;;10.25;100.00;95520.28;5114321;28;20458;-53
2022/05/04 04:45:11;;;;;;;0.57;0.57;;;;;;;10.50;100.00;95517.69;5114162;28;20566;-53
2022/05/04 04:47:40;;;;;;;0.43;0.43;;;;;;;10.55;100.00;95525.66;5114594;28;20500;-53
2022/05/04 04:50:09;;;;;;;0.40;0.30;;;;;;;10.67;100.00;95512.94;5114249;28;20455;-54
2022/05/04 04:52:37;;;;;;;0.40;0.40;;;;;;;10.44;100.00;95526.69;5114131;28;20522;-54
2022/05/04 04:55:07;;;;;;;0.53;0.53;;;;;;;10.67;100.00;95529.63;5114030;28;20554;-53
2022/05/04 04:57:36;;;;;;;0.30;0.23;;;;;;;11.13;100.00;95532.28;5113472;28;20518;-52
2022/05/04 05:00:05;;;;;;;1.17;0.60;;;;;;;11.39;98.63;95539.91;5113885;28;20428;-52
2022/05/04 05:02:35;;;;;;;0.53;0.53;;;;;;;10.50;100.00;95525.63;5114224;28;20498;-53
2022/05/04 05:05:04;;;;;;;0.50;0.40;;;;;;;10.78;100.00;95527.75;5113821;28;20495;-52
2022/05/04 05:07:37;;;;;;;0.40;0.40;;;;;;;10.54;100.00;95518.75;5113824;28;20455;-54
2022/05/04 05:10:06;;;;;;;2.63;0.80;;;;;;;10.45;100.00;95522.97;5113957;28;20494;-53
2022/05/04 05:12:34;;;;;;;0.40;0.40;;;;;;;10.43;100.00;95502.03;5113638;28;20592;-53
2022/05/04 05:17:50;;;;;;;0.30;0.20;;;;;;;10.97;100.00;95518.22;5114086;28;20455;-53
2022/05/04 05:20:20;;;;;;;0.40;0.30;;;;;;;11.25;100.00;95522.19;5113275;28;20477;-53
2022/05/04 05:22:48;;;;;;;1.00;1.00;;;;;;;11.12;100.00;95520.06;5113771;28;20506;-53
2022/05/04 05:25:17;;;;;;;1.33;1.23;;;;;;;10.39;100.00;95514.22;5113628;28;20471;-53
2022/05/04 05:27:45;;;;;;;0.40;0.30;;;;;;;10.63;100.00;95520.59;5113445;28;20455;-53
2022/05/04 05:30:14;;;;;;;1.33;0.90;;;;;;;11.26;100.00;95521.91;5113286;28;20969;-53
2022/05/04 05:32:43;;;;;;;0.90;0.90;;;;;;;10.84;100.00;95508.16;5113541;28;20552;-53
2022/05/04 05:35:13;;;;;;;2.00;1.17;;;;;;;11.40;100.00;95525.59;5113840;28;20427;-53
2022/05/04 05:37:41;;;;;;;0.33;0.30;;;;;;;11.05;100.00;95530.97;5113565;28;20510;-52
2022/05/04 05:40:14;;;;;;;0.40;0.30;;;;;;;10.54;100.00;95522.19;5113584;28;20454;-53
2022/05/04 05:42:43;;;;;;;0.53;0.43;;;;;;;10.29;100.00;95524.00;5113291;28;20514;-53
2022/05/04 05:45:12;;;;;;;0.63;0.60;;;;;;;10.53;100.00;95523.25;5113015;28;20499;-52
2022/05/04 05:47:41;;;;;;;0.30;0.20;;;;;;;11.24;100.00;95524.03;5113247;28;20860;-53
2022/05/04 05:50:10;;;;;;;2.67;0.50;;;;;;;11.37;100.00;95526.13;5113066;28;20428;-53
2022/05/04 05:52:40;;;;;;;0.77;0.60;;;;;;;12.25;100.00;95521.03;5113338;28;20912;-53
2022/05/04 05:55:09;;;;;;;0.50;0.40;;;;;;;11.90;100.00;95534.50;5113020;28;20463;-53
2022/05/04 05:57:39;;;;;;;0.40;0.40;;;;;;;12.07;98.84;95537.59;5113193;28;20412;-53
2022/05/04 06:00:08;;;;;;;0.40;0.40;;;;;;;12.22;98.43;95540.19;5113058;28;20439;-53
2022/05/04 06:02:37;;;;;;;0.30;0.20;;;;;;;12.60;98.29;95533.31;5112704;28;20982;-53
2022/05/04 06:05:06;;;;;;;0.50;0.50;;;;;;;12.75;93.15;95485.34;5112797;28;20431;-53
2022/05/04 06:07:35;;;;;;;0.30;0.20;;;;;;;12.93;91.29;95523.81;5112751;28;20415;-52
2022/05/04 06:10:06;;;;;;;0.60;0.43;;;;;;;13.22;90.17;95482.84;5113060;28;20455;-53
2022/05/04 06:12:35;;;;;;;0.40;0.30;;;;;;;13.87;92.17;95533.81;5113096;28;20524;-53
2022/05/04 06:15:04;;;;;;;5.67;2.30;;;;;;;12.93;85.84;95531.78;5112982;28;20493;-52
2022/05/04 06:17:32;;;;;;;0.57;0.57;;;;;;;13.20;85.39;95534.78;5112643;28;20508;-52
2022/05/04 06:20:00;;;;;;;1.00;0.87;;;;;;;13.18;85.17;95537.69;5112613;28;20522;-52
2022/05/04 06:22:29;;;;;;;1.73;1.07;;;;;;;13.95;83.63;95531.31;5112609;28;20510;-52
2022/05/04 06:24:57;;;;;;;0.80;0.60;;;;;;;14.42;75.66;95530.47;5112522;28;20470;-52
2022/05/04 06:27:29;;;;;;;0.40;0.40;;;;;;;14.69;73.27;95505.81;5112794;28;20873;-52
2022/05/04 06:35:28;;;;;;;0.50;0.30;;;;;;;15.40;74.37;95491.28;5112273;28;20432;-52
2022/05/04 06:37:57;;;;;;;0.50;0.40;;;;;;;15.57;64.50;95521.72;5112221;28;20431;-52
2022/05/04 06:40:25;;;;;;;0.97;0.90;;;;;;;15.18;64.69;95518.63;5112445;28;20424;-52
2022/05/04 06:42:55;;;;;;;0.40;0.40;;;;;;;14.93;75.11;95519.84;5112262;28;20415;-52
2022/05/04 06:45:24;;;;;;;1.27;0.40;;;;;;;15.22;70.59;95512.44;5111992;28;20562;-52
2022/05/04 06:47:52;;;;;;;0.50;0.40;;;;;;;15.45;71.47;95525.94;5112243;28;20921;-52
2022/05/04 06:50:21;;;;;;;0.60;0.57;;;;;;;15.62;68.04;95518.97;5112084;28;20434;-52
2022/05/04 06:52:49;;;;;;;0.40;0.40;;;;;;;16.39;68.13;95511.78;5111143;28;20505;-52
2022/05/04 06:55:18;;;;;;;0.80;0.57;;;;;;;16.31;62.29;95515.19;5111838;28;20530;-51
2022/05/04 06:57:46;;;;;;;2.10;2.00;;;;;;;15.63;63.50;95520.56;5112152;28;20780;-51
2022/05/04 07:00:17;;;;;;;0.43;0.40;;;;;;;15.40;65.38;95486.75;5112438;28;20419;-52
2022/05/04 07:02:45;;;;;;;1.17;1.17;;;;;;;16.18;64.18;95523.22;5111490;28;20467;-51
2022/05/04 07:05:14;;;;;;;0.50;0.43;;;;;;;16.18;63.08;95483.91;5112462;28;20470;-52
2022/05/04 07:07:42;;;;;;;0.40;0.30;;;;;;;16.57;63.20;95510.06;5112298;28;20428;-52
2022/05/04 07:10:11;;;;;;;0.97;0.60;;;;;;;17.77;59.70;95506.31;5112040;28;20510;-52
2022/05/04 07:12:39;;;;;;;2.10;0.70;;;;;;;17.18;56.89;95495.28;5111937;28;20518;-53
2022/05/04 07:15:08;;;;;;;1.03;0.93;;;;;;;17.60;55.63;95495.53;5111638;28;20447;-53
2022/05/04 07:17:38;;;;;;;0.67;0.67;;;;;;;18.46;54.53;95478.88;5111810;28;20434;-53
2022/05/04 07:20:08;;;;;;;1.43;0.80;;;;;;;18.62;51.16;95494.22;5111423;28;20429;-53
2022/05/04 07:22:37;;;;;;;0.40;0.40;;;;;;;18.58;52.77;95481.75;5111892;28;20526;-53
2022/05/04 07:25:07;;;;;;;0.90;0.50;;;;;;;18.28;52.32;95488.78;5112149;28;20505;-53
2022/05/04 07:27:35;;;;;;;4.93;0.53;;;;;;;19.25;50.14;95484.72;5111796;28;20510;-53
2022/05/04 07:30:04;;;;;;;0.50;0.30;;;;;;;18.92;52.53;95484.44;5111884;28;20981;-54
2022/05/04 07:32:33;;;;;;;0.47;0.47;;;;;;;17.15;56.15;95491.31;5111763;28;20466;-54
2022/05/04 07:35:05;;;;;;;3.10;0.60;;;;;;;16.86;58.70;95482.91;5111711;28;20466;-54
2022/05/04 07:37:33;;;;;;;1.50;1.40;;;;;;;16.79;56.21;95479.88;5111273;28;20443;-54
2022/05/04 07:42:53;;;;;;;0.53;0.47;;;;;;;17.67;55.69;95479.78;5111232;28;20477;-54
2022/05/04 07:45:22;;;;;;;0.40;0.33;;;;;;;19.11;52.17;95474.13;5111038;28;20919;-54
2022/05/04 07:47:51;;;;;;;0.83;0.80;;;;;;;18.24;54.58;95469.84;5111113;28;20541;-54
2022/05/04 07:50:21;;;;;;;0.40;0.30;;;;;;;19.13;48.20;95458.47;5111684;28;20861;-55
2022/05/04 07:52:49;;;;;;;0.50;0.50;;;;;;;20.00;44.93;95460.56;5111415;28;20486;-56
2022/05/04 07:55:18;;;;;;;2.40;0.40;;;;;;;18.89;47.51;95472.44;5111126;28;20839;-56
2022/05/04 07:57:48;;;;;;;0.93;0.60;;;;;;;19.06;47.73;95463.56;5111481;28;20463;-56
2022/05/04 08:05:56;;;;;;;0.73;0.40;;;;;;;21.00;45.89;95465.88;5111535;28;20457;-56
2022/05/04 08:08:24;;;;;;;0.43;0.30;;;;;;;20.80;43.77;95466.69;5111116;28;20480;-56
2022/05/04 08:10:53;;;;;;;0.87;0.50;;;;;;;20.71;43.96;95472.16;5110726;28;20455;-56
2022/05/04 08:13:21;;;;;;;0.53;0.40;;;;;;;21.24;43.07;95463.31;5111937;28;20551;-55
2022/05/04 08:15:49;;;;;;;0.50;0.50;;;;;;;22.21;41.46;95458.06;5115404;28;20829;-55
2022/05/04 08:18:18;;;;;;;0.40;0.40;;;;;;;22.15;39.63;95456.69;5115302;28;20488;-56
2022/05/04 08:20:47;;;;;;;0.47;0.40;;;;;;;21.92;39.43;95455.56;5115037;28;20522;-53
2022/05/04 08:23:16;;;;;;;1.23;1.23;;;;;;;20.85;41.03;95458.41;5114135;28;20473;-58
2022/05/04 08:25:45;;;;;;;1.00;0.80;;;;;;;19.88;44.40;95465.06;5114587;28;20485;-57
2022/05/04 08:28:14;;;;;;;0.53;0.47;;;;;;;21.38;44.44;95449.50;5114593;28;20428;-57
2022/05/04 08:30:42;;;;;;;0.67;0.50;;;;;;;20.83;40.55;95455.25;5114672;28;20466;-57
2022/05/04 08:33:10;;;;;;;0.40;0.30;;;;;;;22.62;40.65;95441.56;5113861;28;21069;-57
2022/05/04 08:35:39;;;;;;;0.40;0.33;;;;;;;23.31;38.63;95440.38;5113593;28;20446;-58
2022/05/04 08:38:07;;;;;;;0.50;0.47;;;;;;;23.88;36.92;95437.97;5114706;28;20993;-59
2022/05/04 08:40:38;;;;;;;1.47;0.50;;;;;;;22.37;36.87;95444.63;5114772;28;20423;-59
2022/05/04 08:43:07;;;;;;;0.50;0.30;;;;;;;22.66;35.91;95436.25;5114059;28;20416;-59
2022/05/04 08:45:38;;;;;;;0.40;0.40;;;;;;;22.23;36.59;95384.78;5114617;28;20846;-59
2022/05/04 08:48:08;;;;;;;0.60;0.53;;;;;;;21.13;39.10;95440.59;5114897;28;20520;-59
2022/05/04 08:50:39;;;;;;;0.40;0.30;;;;;;;20.79;40.36;95435.50;5114434;28;20451;-58
2022/05/04 08:53:08;;;;;;;0.70;0.70;;;;;;;21.22;39.18;95392.78;5113709;28;20630;-58
2022/05/04 08:55:39;;;;;;;0.57;0.30;;;;;;;22.82;38.54;95433.63;5114604;28;20428;-58
2022/05/04 08:58:07;;;;;;;0.40;0.30;;;;;;;23.45;37.70;95429.16;5113312;28;20465;-58
2022/05/04 09:00:37;;;;;;;0.47;0.47;;;;;;;23.85;36.25;95433.28;5114362;28;20497;-58
2022/05/04 09:03:07;;;;;;;1.17;0.50;;;;;;;24.08;36.01;95425.34;5114111;28;20874;-59
2022/05/04 09:05:40;;;;;;;0.40;0.40;;;;;;;22.48;38.38;95392.50;5114144;28;20511;-58
2022/05/04 09:08:10;;;;;;;0.40;0.40;;;;;;;22.51;37.88;95423.44;5114192;28;20434;-59
2022/05/04 09:10:47;;;;;;;2.20;0.67;;;;;;;21.75;41.42;95423.38;5114235;28;20407;-57
2022/05/04 09:13:19;;;;;;;0.60;0.50;;;;;;;22.35;40.58;95406.38;5113487;28;20550;-58
2022/05/04 09:15:47;;;;;;;0.40;0.30;;;;;;;23.34;38.38;95415.34;5113795;28;20467;-58
2022/05/04 09:18:19;;;;;;;0.40;0.30;;;;;;;24.54;37.18;95366.75;5114031;28;20867;-58
2022/05/04 09:20:55;;;;;;;0.80;0.70;;;;;;;24.76;35.74;95400.47;5113719;28;20430;-58
2022/05/04 09:23:25;;;;;;;0.67;0.67;;;;;;;24.49;36.31;95396.81;5113728;28;20423;-58
2022/05/04 09:25:57;;;;;;;0.63;0.60;;;;;;;23.73;37.47;95400.13;5113237;28;20979;-58
2022/05/04 09:28:28;;;;;;;1.57;0.50;;;;;;;23.68;37.64;95403.09;5113765;28;20488;-58
2022/05/04 09:30:58;;;;;;;0.80;0.60;;;;;;;24.51;39.18;95395.34;5113618;28;20455;-58
2022/05/04 09:33:28;;;;;;;0.60;0.30;;;;;;;24.81;37.50;95392.88;5113023;28;21003;-58
2022/05/04 09:35:59;;;;;;;0.40;0.30;;;;;;;25.46;35.90;95382.84;5113397;28;21045;-58
2022/05/04 09:46:52;;;;;;;0.67;0.60;;;;;;;27.00;32.14;95328.34;5112366;28;20465;-58
2022/05/04 09:49:22;;;;;;;0.40;0.30;;;;;;;25.14;33.46;95368.72;5112990;28;20458;-57
2022/05/04 09:51:53;;;;;;;2.30;0.60;;;;;;;24.33;31.72;95372.50;5113055;28;20800;-57
2022/05/04 09:54:22;;;;;;;0.50;0.50;;;;;;;26.04;32.08;95364.38;5113138;28;20546;-57
2022/05/04 09:56:55;;;;;;;0.43;0.33;;;;;;;25.03;30.97;95354.16;5113590;28;20795;-58
2022/05/04 09:59:26;;;;;;;0.40;0.30;;;;;;;23.01;30.67;95366.97;5112374;28;20973;-57
2022/05/04 10:01:54;;;;;;;0.50;0.40;;;;;;;23.23;33.19;95362.88;5112853;28;20985;-57
2022/05/04 10:04:24;;;;;;;0.47;0.47;;;;;;;23.87;34.97;95343.59;5112847;28;20423;-58
2022/05/04 10:07:01;;;;;;;0.90;0.90;;;;;;;23.81;34.42;95347.69;5112830;28;20423;-59
2022/05/04 10:09:30;;;;;;;0.63;0.60;;;;;;;23.85;34.18;95357.50;5112803;28;20424;-60
2022/05/04 10:12:01;;;;;;;0.40;0.30;;;;;;;23.69;34.63;95355.91;5112580;28;20523;-62
2022/05/04 10:14:30;;;;;;;0.40;0.37;;;;;;;23.26;35.52;95362.19;5113003;28;20512;-61
2022/05/04 10:17:04;;;;;;;0.40;0.30;;;;;;;22.90;36.91;95346.19;5112754;28;20451;-61
2022/05/04 10:19:43;;;;;;;0.67;0.50;;;;;;;22.71;36.08;95358.44;5112641;28;20968;-61
2022/05/04 10:22:15;;;;;;;0.40;0.33;;;;;;;23.25;34.45;95349.81;5112233;28;20510;-57
2022/05/04 10:24:45;;;;;;;0.40;0.30;;;;;;;23.64;33.60;95359.69;5112743;28;20874;-56
2022/05/04 10:27:25;;;;;;;0.43;0.40;;;;;;;23.43;31.83;95358.41;5112731;28;20502;-57
2022/05/04 10:32:48;;;;;;;0.50;0.40;;;;;;;22.79;35.84;95351.31;5112251;28;20431;-57
2022/05/04 10:35:21;;;;;;;0.60;0.50;;;;;;;21.51;35.90;95359.41;5112421;28;20870;-59
2022/05/04 10:38:17;;;;;;;0.63;0.63;;;;;;;22.09;37.02;95358.16;5110941;28;21121;-61
2022/05/04 10:40:54;;;;;;;0.50;0.47;;;;;;;21.63;35.20;95364.03;5112355;28;20471;-60
2022/05/04 10:43:47;;;;;;;0.87;0.70;;;;;;;21.37;36.63;95362.47;5112406;28;20463;-60
2022/05/04 10:46:18;;;;;;;0.40;0.30;;;;;;;21.75;36.33;95343.25;5107100;28;20476;-60
2022/05/04 10:48:52;;;;;;;0.47;0.40;;;;;;;21.23;37.16;95361.19;5112225;28;20820;-60
2022/05/04 10:51:27;;;;;;;0.40;0.30;;;;;;;21.83;35.82;95368.53;5112072;28;20477;-59
2022/05/04 10:54:00;;;;;;;0.40;0.30;;;;;;;21.36;34.62;95371.66;5095036;28;20462;-60
2022/05/04 10:56:35;;;;;;;0.40;0.20;;;;;;;22.01;34.73;95365.25;5112385;28;20447;-60
2022/05/04 10:59:05;;;;;;;0.50;0.40;;;;;;;21.47;36.31;95358.53;5111078;28;20539;-59
2022/05/04 11:01:35;;;;;;;4.43;0.50;;;;;;;20.07;37.29;95290.53;5111711;28;20423;-59
2022/05/04 11:04:07;;;;;;;0.60;0.40;;;;;;;20.43;37.16;95366.09;5112101;28;20454;-60
2022/05/04 11:06:37;;;;;;;0.50;0.50;;;;;;;20.85;36.82;95367.59;5111537;28;20510;-60
2022/05/04 11:09:08;;;;;;;0.40;0.30;;;;;;;21.74;38.84;95363.25;5111514;28;20457;-60
2022/05/04 11:11:38;;;;;;;1.00;0.33;;;;;;;21.39;34.83;95356.72;5111715;28;20473;-60
2022/05/04 11:14:10;;;;;;;0.80;0.60;;;;;;;21.87;36.18;95343.25;5111616;28;20546;-60
2022/05/04 11:16:40;;;;;;;0.50;0.40;;;;;;;22.79;34.89;95353.22;5111178;28;20423;-60
2022/05/04 11:19:11;;;;;;;9.70;1.50;;;;;;;22.81;33.85;95367.97;5111892;28;20975;-60
2022/05/04 11:21:40;;;;;;;0.40;0.30;;;;;;;22.45;33.57;95349.97;5111774;28;20472;-59
2022/05/04 11:24:11;;;;;;;0.50;0.47;;;;;;;22.26;34.53;95357.91;5110913;28;20884;-59
2022/05/04 11:26:41;;;;;;;0.53;0.53;;;;;;;21.99;37.26;95355.94;5111673;28;20510;-59
2022/05/04 11:29:13;;;;;;;0.40;0.30;;;;;;;22.15;34.45;95356.81;5111970;28;20486;-57
2022/05/04 11:31:44;;;;;;;0.40;0.30;;;;;;;22.96;34.94;95359.13;5111550;28;20445;-57
2022/05/04 11:34:15;;;;;;;0.50;0.40;;;;;;;22.89;33.61;95350.03;5111579;28;20505;-57
2022/05/04 11:36:46;;;;;;;0.50;0.47;;;;;;;21.93;36.16;95349.22;5111445;28;20420;-53
2022/05/04 11:39:35;;;;;;;0.50;0.40;;;;;;;23.02;33.91;95329.91;5111729;28;20466;-54
2022/05/04 11:42:07;;;;;;;0.40;0.30;;;;;;;24.25;32.81;95272.47;5110721;28;20523;-53
2022/05/04 11:44:42;;;;;;;0.40;0.30;;;;;;;24.17;32.05;95330.34;5111336;28;20467;-54
2022/05/04 11:47:11;;;;;;;0.40;0.30;;;;;;;23.98;31.66;95329.13;5111854;28;20463;-53
2022/05/04 11:49:39;;;;;;;1.10;1.07;;;;;;;24.17;32.12;95325.72;5115491;28;20972;-52
2022/05/04 11:52:08;;;;;;;0.60;0.50;;;;;;;24.07;30.78;95320.03;5114701;28;20455;-53
2022/05/04 11:54:36;;;;;;;0.43;0.37;;;;;;;24.00;31.92;95316.06;5115216;28;20495;-53
2022/05/04 11:57:12;;;;;;;1.37;0.83;;;;;;;24.11;32.11;95310.88;5114993;28;20496;-52
2022/05/04 11:59:42;;;;;;;0.40;0.40;;;;;;;24.17;31.72;95308.66;5115460;28;20446;-54
2022/05/04 12:02:11;;;;;;;1.17;1.17;;;;;;;23.31;32.87;95310.53;5115033;28;20423;-54
2022/05/04 12:04:39;;;;;;;0.40;0.40;;;;;;;23.36;32.64;95313.00;5115490;28;20789;-54
2022/05/04 12:07:08;;;;;;;0.40;0.37;;;;;;;23.45;33.68;95307.44;5115317;28;20420;-53
2022/05/04 12:09:37;;;;;;;0.60;0.50;;;;;;;23.64;33.94;95308.28;5115044;28;20435;-53
2022/05/04 12:12:07;;;;;;;2.70;0.90;;;;;;;24.79;30.30;95307.63;5115557;28;20484;-54
2022/05/04 12:14:35;;;;;;;0.40;0.30;;;;;;;26.20;30.18;95299.03;5115085;28;20938;-55
2022/05/04 12:17:05;;;;;;;0.73;0.30;;;;;;;25.31;31.54;95301.53;5115326;28;20780;-53
2022/05/04 12:19:35;;;;;;;0.40;0.30;;;;;;;26.08;28.86;95300.03;5115318;28;20508;-53